createdAt,value
2022-12-11T00:02:04.662Z,101181.72
2022-12-11T00:04:32.152Z,101175.97
2022-12-11T00:06:58.727Z,101121.09
2022-12-11T00:09:25.211Z,101167.50
2022-12-11T00:11:51.669Z,101163.88
2022-12-11T00:14:19.011Z,101112.63
2022-12-11T00:16:48.346Z,101165.63
2022-12-11T00:19:15.350Z,101089.97
2022-12-11T00:21:42.565Z,101151.91
2022-12-11T00:24:09.091Z,101075.00
2022-12-11T00:26:35.646Z,101148.22
2022-12-11T00:29:02.146Z,101127.59
2022-12-11T00:31:28.717Z,101127.94
2022-12-11T00:33:55.309Z,101135.03
2022-12-11T00:36:25.151Z,101175.47
2022-12-11T00:38:52.950Z,101187.97
2022-12-11T00:41:19.935Z,101140.97
2022-12-11T00:43:46.924Z,101128.69
2022-12-11T00:46:14.080Z,101165.72
2022-12-11T00:48:40.535Z,101122.25
2022-12-11T00:51:07.444Z,101166.03
2022-12-11T00:53:34.035Z,101169.19
2022-12-11T00:56:00.647Z,101169.34
2022-12-11T00:58:27.386Z,101149.22
2022-12-11T01:00:54.215Z,101123.72
2022-12-11T01:03:20.862Z,101165.00
2022-12-11T01:05:54.698Z,101130.28
2022-12-11T01:08:21.398Z,101143.97
2022-12-11T01:10:47.979Z,101156.91
2022-12-11T01:13:14.512Z,101152.50
2022-12-11T01:15:44.081Z,101160.22
2022-12-11T01:18:12.378Z,101155.91
2022-12-11T01:20:40.658Z,101150.53
2022-12-11T01:23:07.229Z,101164.69
2022-12-11T01:25:38.259Z,101165.63
2022-12-11T01:28:05.363Z,101157.47
2022-12-11T01:30:32.228Z,101102.38
2022-12-11T01:33:00.100Z,101154.84
2022-12-11T01:35:27.083Z,101123.94
2022-12-11T01:37:54.101Z,101100.66
2022-12-11T01:40:21.614Z,101163.94
2022-12-11T01:42:48.320Z,101162.59
2022-12-11T01:45:27.461Z,101173.94
2022-12-11T01:48:22.452Z,101173.72
2022-12-11T01:50:58.896Z,101151.75
2022-12-11T01:53:31.812Z,101122.09
2022-12-11T01:55:59.026Z,101149.41
2022-12-11T01:58:31.446Z,101132.34
2022-12-11T02:00:58.835Z,101031.63
2022-12-11T02:03:25.506Z,101128.59
2022-12-11T02:05:52.393Z,101149.47
2022-12-11T02:08:19.816Z,101156.19
2022-12-11T02:11:11.506Z,101114.97
2022-12-11T02:13:55.032Z,101151.22
2022-12-11T02:16:36.304Z,101150.41
2022-12-11T02:19:22.032Z,101159.19
2022-12-11T02:21:53.336Z,101114.22
2022-12-11T02:24:39.087Z,101141.78
2022-12-11T02:27:19.745Z,101157.75
2022-12-11T02:29:53.757Z,101162.50
2022-12-11T02:32:35.023Z,101160.41
2022-12-11T02:35:06.375Z,101161.03
2022-12-11T02:37:37.579Z,101109.03
2022-12-11T02:40:08.416Z,101156.59
2022-12-11T02:42:37.607Z,101091.66
2022-12-11T02:45:05.683Z,101161.03
2022-12-11T02:47:33.367Z,101097.00
2022-12-11T02:50:02.769Z,101121.91
2022-12-11T02:52:32.146Z,101143.41
2022-12-11T02:55:01.077Z,101063.94
2022-12-11T02:57:33.876Z,101148.03
2022-12-11T03:00:00.454Z,101143.78
2022-12-11T03:02:27.126Z,101148.03
2022-12-11T03:04:54.099Z,101135.16
2022-12-11T03:07:27.527Z,101133.63
2022-12-11T03:09:54.474Z,101128.75
2022-12-11T03:12:28.034Z,101146.75
2022-12-11T03:14:55.223Z,101157.06
2022-12-11T03:17:25.558Z,101047.88
2022-12-11T03:20:26.944Z,101155.34
2022-12-11T03:23:11.004Z,101135.47
2022-12-11T03:25:49.794Z,101140.81
2022-12-11T03:28:19.784Z,101136.84
2022-12-11T03:30:50.933Z,101086.00
2022-12-11T03:33:27.612Z,101022.81
2022-12-11T03:36:03.255Z,101091.41
2022-12-11T03:38:36.405Z,101155.81
2022-12-11T03:41:06.233Z,101152.56
2022-12-11T03:43:34.200Z,101084.41
2022-12-11T03:46:01.689Z,101147.66
2022-12-11T03:48:33.435Z,101125.38
2022-12-11T03:51:05.078Z,101147.44
2022-12-11T03:53:34.351Z,101136.09
2022-12-11T03:56:02.873Z,101126.25
2022-12-11T03:58:29.885Z,101086.41
2022-12-11T04:00:56.384Z,101081.78
2022-12-11T04:03:22.956Z,101124.25
2022-12-11T04:05:52.054Z,101144.81
2022-12-11T04:08:23.364Z,101142.84
2022-12-11T04:11:11.151Z,101142.31
2022-12-11T04:13:38.639Z,101141.97
2022-12-11T04:16:05.470Z,101137.78
2022-12-11T04:18:50.887Z,101122.06
2022-12-11T04:21:39.397Z,101135.88
2022-12-11T04:24:16.560Z,101121.16
2022-12-11T04:26:47.200Z,101134.00
2022-12-11T04:29:14.936Z,101124.09
2022-12-11T04:31:41.515Z,101128.41
2022-12-11T04:34:08.247Z,101127.50
2022-12-11T04:36:34.797Z,101084.31
2022-12-11T04:39:01.257Z,101066.16
2022-12-11T04:41:28.742Z,101136.78
2022-12-11T04:43:55.175Z,101128.78
2022-12-11T04:46:24.822Z,101129.41
2022-12-11T04:48:57.394Z,101103.13
2022-12-11T04:51:25.243Z,101120.00
2022-12-11T04:53:51.833Z,101145.28
2022-12-11T04:56:18.381Z,101129.59
2022-12-11T04:58:45.746Z,101131.81
2022-12-11T05:01:18.961Z,101135.47
2022-12-11T05:03:45.771Z,101094.75
2022-12-11T05:06:12.841Z,101128.66
2022-12-11T05:08:41.118Z,100996.94
2022-12-11T05:11:11.478Z,101094.03
2022-12-11T05:13:38.355Z,101129.50
2022-12-11T05:16:06.641Z,101123.94
2022-12-11T05:18:33.433Z,101046.94
2022-12-11T05:21:02.680Z,101059.56
2022-12-11T05:23:30.122Z,101086.25
2022-12-11T05:25:59.266Z,101133.94
2022-12-11T05:28:28.057Z,101080.13
2022-12-11T05:30:59.717Z,101106.38
2022-12-11T05:33:26.848Z,101127.84
2022-12-11T05:35:53.633Z,101108.97
2022-12-11T05:38:20.161Z,101098.44
2022-12-11T05:40:56.175Z,101109.41
2022-12-11T05:43:22.649Z,101102.16
2022-12-11T05:45:49.072Z,101122.88
2022-12-11T05:48:15.532Z,101135.34
2022-12-11T05:50:42.254Z,101127.56
2022-12-11T05:53:08.684Z,101128.22
2022-12-11T05:55:35.619Z,101093.75
2022-12-11T05:58:02.291Z,101134.03
2022-12-11T06:00:32.971Z,101063.84
2022-12-11T06:03:02.487Z,101122.25
2022-12-11T06:05:28.956Z,101114.66
2022-12-11T06:07:55.496Z,101106.94
2022-12-11T06:10:22.022Z,101073.47
2022-12-11T06:12:48.606Z,101111.53
2022-12-11T06:15:15.137Z,101122.09
2022-12-11T06:17:41.684Z,101131.06
2022-12-11T06:20:08.621Z,101132.19
2022-12-11T06:22:35.030Z,101118.44
2022-12-11T06:25:01.442Z,101133.94
2022-12-11T06:27:27.950Z,101125.88
2022-12-11T06:29:54.396Z,101130.34
2022-12-11T06:32:20.866Z,101095.06
2022-12-11T06:34:47.815Z,101107.94
2022-12-11T06:37:14.287Z,101121.81
2022-12-11T06:39:40.978Z,101097.56
2022-12-11T06:42:07.463Z,101128.59
2022-12-11T06:44:33.904Z,101123.41
2022-12-11T06:47:00.632Z,101128.00
2022-12-11T06:49:27.151Z,101081.09
2022-12-11T06:51:53.574Z,101083.69
2022-12-11T06:54:20.036Z,101074.16
2022-12-11T06:56:46.505Z,101085.63
2022-12-11T06:59:13.011Z,101120.47
2022-12-11T07:01:40.874Z,101121.47
2022-12-11T07:04:09.259Z,101110.66
2022-12-11T07:06:35.687Z,101059.59
2022-12-11T07:09:05.100Z,101127.59
2022-12-11T07:11:31.932Z,101078.09
2022-12-11T07:14:01.619Z,101110.19
2022-12-11T07:16:28.270Z,101147.41
2022-12-11T07:18:54.848Z,101145.78
2022-12-11T07:21:21.521Z,101146.78
2022-12-11T07:23:49.292Z,101100.81
2022-12-11T07:26:18.413Z,101152.06
2022-12-11T07:28:45.366Z,101136.63
2022-12-11T07:31:14.779Z,100988.38
2022-12-11T07:33:42.329Z,101164.41
2022-12-11T07:36:10.698Z,101157.88
2022-12-11T07:38:37.407Z,101129.19
2022-12-11T07:41:09.869Z,101139.44
2022-12-11T07:43:43.468Z,101174.16
2022-12-11T07:46:18.925Z,101138.03
2022-12-11T07:48:47.285Z,101137.06
2022-12-11T07:51:35.672Z,101178.81
2022-12-11T07:54:08.683Z,101177.09
2022-12-11T07:56:35.440Z,101173.34
2022-12-11T07:59:03.903Z,101169.81
2022-12-11T08:01:32.267Z,101102.28
2022-12-11T08:03:59.131Z,101161.91
2022-12-11T08:06:34.481Z,101152.41
2022-12-11T08:09:02.685Z,101167.94
2022-12-11T08:11:29.642Z,101107.06
2022-12-11T08:13:56.582Z,101165.28
2022-12-11T08:16:23.494Z,101145.16
2022-12-11T08:18:50.514Z,101085.44
2022-12-11T08:21:19.746Z,101164.38
2022-12-11T08:23:46.816Z,101007.25
2022-12-11T08:26:16.407Z,101148.16
2022-12-11T08:28:42.913Z,101164.22
2022-12-11T08:31:10.534Z,101169.47
2022-12-11T08:33:38.796Z,101160.88
2022-12-11T08:36:07.254Z,101156.84
2022-12-11T08:38:34.427Z,101171.09
2022-12-11T08:41:28.244Z,101169.22
2022-12-11T08:43:55.994Z,101167.94
2022-12-11T08:46:24.720Z,101151.81
2022-12-11T08:48:51.824Z,101147.41
2022-12-11T08:51:22.772Z,101126.59
2022-12-11T08:53:50.252Z,101157.28
2022-12-11T08:56:19.558Z,101107.66
2022-12-11T08:58:47.141Z,101164.06
2022-12-11T09:01:18.621Z,101158.22
2022-12-11T09:03:45.173Z,101088.69
2022-12-11T09:06:14.568Z,101137.66
2022-12-11T09:08:44.909Z,101094.22
2022-12-11T09:11:19.445Z,101095.75
2022-12-11T09:13:46.129Z,101152.09
2022-12-11T09:16:15.927Z,101084.28
2022-12-11T09:18:42.864Z,101126.31
2022-12-11T09:21:13.678Z,101138.00
2022-12-11T09:23:40.613Z,101143.72
2022-12-11T09:26:08.989Z,101085.38
2022-12-11T09:28:35.474Z,101122.16
2022-12-11T09:31:02.049Z,101099.81
2022-12-11T09:33:28.532Z,101067.59
2022-12-11T09:35:59.471Z,101133.31
2022-12-11T09:38:26.242Z,101127.88
2022-12-11T09:40:53.691Z,101127.53
2022-12-11T09:43:46.317Z,101120.06
2022-12-11T09:46:15.045Z,101099.59
2022-12-11T09:48:49.378Z,101104.56
2022-12-11T09:51:41.761Z,101039.69
2022-12-11T09:54:13.703Z,101114.56
2022-12-11T09:56:51.254Z,101113.66
2022-12-11T09:59:29.749Z,101074.56
2022-12-11T10:02:15.838Z,101125.22
2022-12-11T10:05:10.621Z,101125.53
2022-12-11T10:07:46.441Z,101129.75
2022-12-11T10:10:25.626Z,101125.72
2022-12-11T10:13:34.158Z,101082.69
2022-12-11T10:16:14.313Z,101104.53
2022-12-11T10:18:41.194Z,101098.13
2022-12-11T10:21:09.443Z,101056.59
2022-12-11T10:23:46.034Z,101102.38
2022-12-11T10:26:18.176Z,101071.31
2022-12-11T10:28:45.331Z,101086.09
2022-12-11T10:31:20.098Z,101088.19
2022-12-11T10:34:04.781Z,101083.97
2022-12-11T10:36:37.338Z,101079.72
2022-12-11T10:39:12.032Z,101070.41
2022-12-11T10:41:41.910Z,101079.47
2022-12-11T10:44:27.906Z,101081.25
2022-12-11T10:47:14.194Z,101074.88
2022-12-11T10:49:52.755Z,101035.44
2022-12-11T10:52:35.158Z,101019.00
2022-12-11T10:55:07.278Z,101063.00
2022-12-11T10:57:39.310Z,101047.00
2022-12-11T11:00:26.612Z,101074.56
2022-12-11T11:02:53.435Z,101053.31
2022-12-11T11:05:34.654Z,101034.50
2022-12-11T11:08:25.975Z,101006.63
2022-12-11T11:11:01.487Z,101073.81
2022-12-11T11:13:30.485Z,101067.31
2022-12-11T11:16:06.437Z,101031.69
2022-12-11T11:18:34.615Z,101065.09
2022-12-11T11:21:02.269Z,101070.13
2022-12-11T11:23:29.723Z,100986.09
2022-12-11T11:25:57.689Z,101058.19
2022-12-11T11:28:28.562Z,101006.19
2022-12-11T11:31:05.580Z,101055.53
2022-12-11T11:33:35.282Z,101052.56
2022-12-11T11:36:07.074Z,101042.19
2022-12-11T11:38:56.940Z,101041.41
2022-12-11T11:41:37.611Z,100996.94
2022-12-11T11:44:13.291Z,101045.09
2022-12-11T11:46:49.043Z,101024.28
2022-12-11T11:49:25.734Z,101035.97
2022-12-11T11:52:10.435Z,100976.38
2022-12-11T11:54:43.277Z,101023.72
2022-12-11T11:57:29.866Z,101029.44
2022-12-11T12:00:18.192Z,101027.78
2022-12-11T12:02:47.091Z,100981.88
2022-12-11T12:05:13.908Z,100959.25
2022-12-11T12:08:13.778Z,101029.16
2022-12-11T12:11:12.257Z,101039.63
2022-12-11T12:13:59.042Z,101016.72
2022-12-11T12:16:53.733Z,101037.59
2022-12-11T12:19:32.612Z,101040.50
2022-12-11T12:22:16.693Z,100959.78
2022-12-11T12:24:51.121Z,101041.41
2022-12-11T12:27:52.391Z,101026.31
2022-12-11T12:30:23.015Z,100996.22
2022-12-11T12:33:22.547Z,101045.97
2022-12-11T12:36:06.866Z,101030.47
2022-12-11T12:38:54.177Z,100980.25
2022-12-11T12:41:28.419Z,100989.72
2022-12-11T12:44:13.931Z,101005.78
2022-12-11T12:46:51.379Z,101033.88
2022-12-11T12:49:35.644Z,101047.41
2022-12-11T12:52:03.819Z,101040.00
2022-12-11T12:54:33.765Z,101035.03
2022-12-11T12:57:02.778Z,100932.75
2022-12-11T12:59:29.531Z,101002.28
2022-12-11T13:02:01.158Z,101003.41
2022-12-11T13:04:58.466Z,101041.72
2022-12-11T13:07:32.810Z,101038.94
2022-12-11T13:10:09.176Z,101046.28
2022-12-11T13:12:46.590Z,101042.84
2022-12-11T13:15:36.707Z,101040.66
2022-12-11T13:18:07.431Z,101039.16
2022-12-11T13:20:34.472Z,101042.13
2022-12-11T13:23:06.760Z,101035.69
2022-12-11T13:25:47.421Z,101043.06
2022-12-11T13:28:23.415Z,101020.31
2022-12-11T13:31:02.267Z,101006.19
2022-12-11T13:33:30.604Z,101045.50
2022-12-11T13:36:15.093Z,101045.34
2022-12-11T13:38:51.919Z,101012.13
2022-12-11T13:41:20.225Z,101050.16
2022-12-11T13:43:49.538Z,101050.97
2022-12-11T13:46:22.561Z,101001.22
2022-12-11T13:48:57.297Z,101049.03
2022-12-11T13:51:25.907Z,101055.03
2022-12-11T13:54:16.735Z,101054.22
2022-12-11T13:56:59.464Z,101041.28
2022-12-11T13:59:35.796Z,101043.44
2022-12-11T14:02:13.138Z,100986.53
2022-12-11T14:04:40.317Z,100993.88
2022-12-11T14:07:09.288Z,101047.44
2022-12-11T14:09:39.105Z,101036.47
2022-12-11T14:12:06.256Z,101006.25
2022-12-11T14:14:45.575Z,101053.59
2022-12-11T14:17:24.856Z,101041.63
2022-12-11T14:19:51.874Z,101050.38
2022-12-11T14:22:21.725Z,101062.66
2022-12-11T14:24:53.178Z,101066.81
2022-12-11T14:27:20.809Z,101066.31
2022-12-11T14:29:48.450Z,101045.75
2022-12-11T14:32:46.067Z,101069.31
2022-12-11T14:35:27.842Z,101053.59
2022-12-11T14:37:55.623Z,101075.03
2022-12-11T14:40:26.906Z,101042.91
2022-12-11T14:43:00.350Z,101075.69
2022-12-11T14:45:36.880Z,101074.72
2022-12-11T14:48:10.260Z,101031.56
2022-12-11T14:50:48.119Z,101017.03
2022-12-11T14:53:19.981Z,101002.66
2022-12-11T14:55:49.745Z,101070.06
2022-12-11T14:58:21.443Z,101072.59
2022-12-11T15:00:58.381Z,101060.34
2022-12-11T15:03:30.572Z,101044.16
2022-12-11T15:05:58.654Z,101059.41
2022-12-11T15:08:36.986Z,101015.50
2022-12-11T15:11:10.827Z,101071.00
2022-12-11T15:13:55.870Z,101076.94
2022-12-11T15:16:24.332Z,101073.66
2022-12-11T15:18:53.711Z,101073.22
2022-12-11T15:21:29.687Z,101022.72
2022-12-11T15:23:58.393Z,101090.34
2022-12-11T15:26:48.129Z,100992.25
2022-12-11T15:29:35.160Z,101014.72
2022-12-11T15:32:10.660Z,101074.88
2022-12-11T15:34:50.893Z,101050.38
2022-12-11T15:37:30.665Z,101074.38
2022-12-11T15:40:00.030Z,101045.16
2022-12-11T15:42:40.117Z,101039.22
2022-12-11T15:45:08.782Z,101083.84
2022-12-11T15:47:35.627Z,101065.50
2022-12-11T15:50:19.862Z,101034.00
2022-12-11T15:52:46.687Z,101062.16
2022-12-11T15:55:13.435Z,101004.91
2022-12-11T15:57:46.750Z,101066.31
2022-12-11T16:00:19.357Z,101016.25
2022-12-11T16:02:46.857Z,100990.22
2022-12-11T16:05:14.549Z,101025.75
2022-12-11T16:07:41.502Z,101031.84
2022-12-11T16:10:15.697Z,101055.28
2022-12-11T16:12:43.071Z,100971.53
2022-12-11T16:15:11.524Z,100988.53
2022-12-11T16:17:38.825Z,101050.22
2022-12-11T16:20:06.799Z,100998.56
2022-12-11T16:22:33.311Z,101055.66
2022-12-11T16:25:00.022Z,101069.72
2022-12-11T16:27:26.486Z,101068.22
2022-12-11T16:29:53.227Z,101066.50
2022-12-11T16:32:19.754Z,101072.09
2022-12-11T16:34:46.261Z,101077.03
2022-12-11T16:37:15.320Z,101047.50
2022-12-11T16:39:43.022Z,101071.97
2022-12-11T16:42:09.445Z,101067.25
2022-12-11T16:44:39.642Z,101060.88
2022-12-11T16:47:10.320Z,101068.00
2022-12-11T16:49:36.761Z,101068.84
2022-12-11T16:52:03.437Z,101058.13
2022-12-11T16:54:29.959Z,101037.56
2022-12-11T16:56:56.466Z,101041.72
2022-12-11T16:59:23.034Z,101074.25
2022-12-11T17:01:50.661Z,100998.25
2022-12-11T17:04:29.272Z,100910.69
2022-12-11T17:06:55.912Z,100562.63
2022-12-11T17:09:22.398Z,100926.25
2022-12-11T17:11:48.933Z,101050.88
2022-12-11T17:14:15.460Z,101081.38
2022-12-11T17:16:42.037Z,101049.84
2022-12-11T17:19:09.479Z,101081.19
2022-12-11T17:21:36.512Z,101017.31
2022-12-11T17:24:03.107Z,101051.47
2022-12-11T17:26:29.585Z,101046.91
2022-12-11T17:28:59.230Z,101084.13
2022-12-11T17:31:25.772Z,101085.00
2022-12-11T17:33:54.042Z,101087.53
2022-12-11T17:36:22.052Z,101082.94
2022-12-11T17:38:49.924Z,101080.94
2022-12-11T17:41:20.803Z,101082.63
2022-12-11T17:43:49.866Z,101075.78
2022-12-11T17:46:16.765Z,101072.81
2022-12-11T17:48:43.357Z,100999.25
2022-12-11T17:51:12.079Z,101061.53
2022-12-11T17:53:38.960Z,101030.72
2022-12-11T17:56:07.667Z,101063.22
2022-12-11T17:58:34.937Z,101061.59
2022-12-11T18:01:07.934Z,101064.94
2022-12-11T18:03:35.332Z,101062.47
2022-12-11T18:06:05.930Z,101060.59
2022-12-11T18:08:32.549Z,101066.13
2022-12-11T18:11:05.456Z,101061.06
2022-12-11T18:13:32.729Z,101052.47
2022-12-11T18:16:04.910Z,101065.16
2022-12-11T18:18:31.562Z,100925.75
2022-12-11T18:20:58.404Z,101072.78
2022-12-11T18:23:25.386Z,101029.44
2022-12-11T18:25:52.465Z,101078.59
2022-12-11T18:28:19.491Z,101016.84
2022-12-11T18:30:46.495Z,101074.97
2022-12-11T18:33:13.781Z,101058.25
2022-12-11T18:35:41.514Z,101052.59
2022-12-11T18:38:08.788Z,101045.88
2022-12-11T18:40:35.345Z,101092.38
2022-12-11T18:43:01.882Z,101086.84
2022-12-11T18:45:28.477Z,101071.16
2022-12-11T18:47:56.602Z,101016.50
2022-12-11T18:50:23.120Z,101082.06
2022-12-11T18:52:54.074Z,101035.72
2022-12-11T18:55:20.682Z,101024.78
2022-12-11T18:57:47.138Z,101028.00
2022-12-11T19:00:14.351Z,100997.03
2022-12-11T19:02:40.869Z,101065.72
2022-12-11T19:05:07.706Z,101077.50
2022-12-11T19:07:34.288Z,101040.41
2022-12-11T19:10:00.867Z,101025.28
2022-12-11T19:12:27.770Z,101065.91
2022-12-11T19:14:54.627Z,101083.75
2022-12-11T19:17:21.242Z,101066.28
2022-12-11T19:19:47.895Z,101078.31
2022-12-11T19:22:15.199Z,101098.41
2022-12-11T19:24:41.754Z,101100.09
2022-12-11T19:27:13.244Z,101097.56
2022-12-11T19:29:40.352Z,101066.34
2022-12-11T19:32:07.014Z,101068.75
2022-12-11T19:34:33.635Z,101069.66
2022-12-11T19:37:00.238Z,101095.72
2022-12-11T19:39:34.981Z,101101.91
2022-12-11T19:42:01.464Z,101108.06
2022-12-11T19:44:27.980Z,101102.19
2022-12-11T19:46:54.503Z,101086.53
2022-12-11T19:49:21.611Z,101076.81
2022-12-11T19:51:48.135Z,101083.56
2022-12-11T19:54:17.112Z,101079.81
2022-12-11T19:56:44.347Z,101089.19
2022-12-11T19:59:16.576Z,101084.25
2022-12-11T20:01:46.724Z,101097.22
2022-12-11T20:04:15.168Z,101016.75
2022-12-11T20:06:44.207Z,101090.13
2022-12-11T20:09:12.196Z,101095.47
2022-12-11T20:11:40.419Z,101083.22
2022-12-11T20:14:07.375Z,101085.88
2022-12-11T20:17:02.210Z,101022.94
2022-12-11T20:19:20.520Z,101086.66
2022-12-11T20:21:47.040Z,101013.44
2022-12-11T20:24:13.503Z,100936.66
2022-12-11T20:26:40.168Z,101080.81
2022-12-11T20:29:08.162Z,101035.91
2022-12-11T20:31:36.812Z,101080.91
2022-12-11T20:34:04.880Z,101089.91
2022-12-11T20:36:31.531Z,101097.13
2022-12-11T20:38:58.045Z,101099.53
2022-12-11T20:41:25.571Z,101107.31
2022-12-11T20:43:56.143Z,101086.00
2022-12-11T20:46:25.908Z,101066.22
2022-12-11T20:49:05.230Z,101102.38
2022-12-11T20:51:33.154Z,101060.69
2022-12-11T20:53:59.863Z,101031.47
2022-12-11T20:56:30.025Z,101101.41
2022-12-11T20:58:58.283Z,101098.34
2022-12-11T21:01:29.606Z,101090.31
2022-12-11T21:03:56.774Z,101086.13
2022-12-11T21:06:31.081Z,101094.28
2022-12-11T21:08:59.934Z,101101.41
2022-12-11T21:11:27.631Z,101037.16
2022-12-11T21:13:54.765Z,101087.59
2022-12-11T21:16:21.851Z,101038.13
2022-12-11T21:18:48.595Z,101095.47
2022-12-11T21:21:16.614Z,101097.91
2022-12-11T21:23:43.305Z,101112.66
2022-12-11T21:26:10.686Z,101081.28
2022-12-11T21:28:37.353Z,101093.16
2022-12-11T21:31:08.509Z,101108.34
2022-12-11T21:33:35.855Z,101095.81
2022-12-11T21:36:03.784Z,101072.44
2022-12-11T21:38:30.546Z,101102.91
2022-12-11T21:40:57.641Z,101095.75
2022-12-11T21:43:24.921Z,101095.47
2022-12-11T21:46:00.945Z,101099.41
2022-12-11T21:48:28.126Z,101111.97
2022-12-11T21:50:54.822Z,101091.59
2022-12-11T21:53:21.322Z,101033.59
2022-12-11T21:55:47.783Z,101104.53
2022-12-11T21:58:14.414Z,101112.63
2022-12-11T22:00:41.057Z,101106.25
2022-12-11T22:03:07.682Z,101062.06
2022-12-11T22:05:34.227Z,101106.31
2022-12-11T22:08:00.817Z,101028.88
2022-12-11T22:10:30.895Z,101078.06
2022-12-11T22:12:57.369Z,101061.50
2022-12-11T22:15:23.923Z,101103.88
2022-12-11T22:17:50.487Z,100996.69
2022-12-11T22:20:17.051Z,101109.19
2022-12-11T22:22:43.571Z,101027.28
2022-12-11T22:25:10.248Z,101114.94
2022-12-11T22:27:36.944Z,101061.94
2022-12-11T22:30:04.615Z,101107.44
2022-12-11T22:32:31.323Z,101092.84
2022-12-11T22:34:57.928Z,101042.50
2022-12-11T22:37:25.161Z,101107.19
2022-12-11T22:39:51.798Z,101113.19
2022-12-11T22:42:18.385Z,100962.63
2022-12-11T22:44:44.877Z,101104.38
2022-12-11T22:47:11.564Z,101058.78
2022-12-11T22:49:38.144Z,101099.31
2022-12-11T22:52:04.901Z,101101.66
2022-12-11T22:54:31.507Z,101101.97
2022-12-11T22:56:58.111Z,101054.84
2022-12-11T22:59:24.782Z,101102.41
2022-12-11T23:01:51.300Z,101053.38
2022-12-11T23:04:17.859Z,101103.16
2022-12-11T23:06:44.358Z,101101.06
2022-12-11T23:09:10.948Z,101077.38
2022-12-11T23:11:38.507Z,101097.53
2022-12-11T23:14:07.759Z,101097.13
2022-12-11T23:16:34.894Z,101092.28
2022-12-11T23:19:01.512Z,101048.38
2022-12-11T23:21:29.135Z,101098.25
2022-12-11T23:23:56.864Z,101096.63
2022-12-11T23:26:24.573Z,101054.69
2022-12-11T23:28:51.224Z,101064.25
2022-12-11T23:31:17.955Z,101103.78
2022-12-11T23:33:44.938Z,101097.44
2022-12-11T23:36:12.184Z,101098.53
2022-12-11T23:38:39.099Z,101097.03
2022-12-11T23:41:09.187Z,101049.44
2022-12-11T23:43:36.713Z,101021.09
2022-12-11T23:46:07.560Z,101027.75
2022-12-11T23:48:34.286Z,101085.50
2022-12-11T23:51:03.084Z,101110.94
2022-12-11T23:53:30.778Z,101076.91
2022-12-11T23:56:03.997Z,101125.44
2022-12-11T23:58:30.497Z,101055.25
